Aviation Digital Data Service (ADDS)

Output produced by METARs form (0747 UTC 18 February 2019)
found at http://www.aviationweather.gov/metar/data/
 
Forecast for: LFSI (ST. DIZIER/ROBIN, FR)
Text: TAF LFSI 180200Z 1803/1903 VRB02KT CAVOK
Forecast period: 0300 UTC 18 February 2019 to 0300 UTC 19 February 2019
Forecast type: FROM: standard forecast or significant change
Winds: variable direction winds at 2 MPH (2 knots; 1.0 m/s)
Visibility: 6 or more miles 10+ km)
Ceiling: unknown
Clouds: missing
Weather: NSW  (no significant weather)